sensor_id;sensor_type;location;lat;lon;timestamp;P1;durP1;ratioP1;P2;durP2;ratioP2
33184;SDS011;19550;42.872;25.494;2024-02-26T00:01:58;11.45;;;7.57;;
33184;SDS011;19550;42.872;25.494;2024-02-26T00:04:28;18.43;;;8.87;;
33184;SDS011;19550;42.872;25.494;2024-02-26T00:06:55;14.57;;;9.18;;
33184;SDS011;19550;42.872;25.494;2024-02-26T00:09:23;16.65;;;7.85;;
33184;SDS011;19550;42.872;25.494;2024-02-26T00:11:50;15.30;;;10.13;;
33184;SDS011;19550;42.872;25.494;2024-02-26T00:14:16;16.08;;;9.68;;
33184;SDS011;19550;42.872;25.494;2024-02-26T00:16:43;20.83;;;12.40;;
33184;SDS011;19550;42.872;25.494;2024-02-26T00:19:10;13.80;;;9.38;;
33184;SDS011;19550;42.872;25.494;2024-02-26T00:21:41;21.73;;;12.18;;
33184;SDS011;19550;42.872;25.494;2024-02-26T00:24:07;12.38;;;8.07;;
33184;SDS011;19550;42.872;25.494;2024-02-26T00:26:34;16.23;;;9.98;;
33184;SDS011;19550;42.872;25.494;2024-02-26T00:29:01;16.25;;;11.05;;
33184;SDS011;19550;42.872;25.494;2024-02-26T00:31:28;16.83;;;10.40;;
33184;SDS011;19550;42.872;25.494;2024-02-26T00:33:55;10.80;;;7.60;;
33184;SDS011;19550;42.872;25.494;2024-02-26T00:36:22;17.02;;;8.68;;
33184;SDS011;19550;42.872;25.494;2024-02-26T00:38:50;16.63;;;7.90;;
33184;SDS011;19550;42.872;25.494;2024-02-26T00:41:17;11.90;;;7.82;;
33184;SDS011;19550;42.872;25.494;2024-02-26T00:43:44;17.10;;;9.50;;
33184;SDS011;19550;42.872;25.494;2024-02-26T00:46:11;14.70;;;10.05;;
33184;SDS011;19550;42.872;25.494;2024-02-26T00:48:37;16.27;;;8.27;;
33184;SDS011;19550;42.872;25.494;2024-02-26T00:51:04;12.05;;;7.00;;
33184;SDS011;19550;42.872;25.494;2024-02-26T00:53:32;15.43;;;7.88;;
33184;SDS011;19550;42.872;25.494;2024-02-26T00:56:01;12.32;;;6.97;;
33184;SDS011;19550;42.872;25.494;2024-02-26T00:58:27;11.02;;;6.22;;
33184;SDS011;19550;42.872;25.494;2024-02-26T01:00:54;10.25;;;6.10;;
33184;SDS011;19550;42.872;25.494;2024-02-26T01:03:21;12.50;;;7.50;;
33184;SDS011;19550;42.872;25.494;2024-02-26T01:05:48;10.63;;;5.30;;
33184;SDS011;19550;42.872;25.494;2024-02-26T01:08:14;18.52;;;8.55;;
33184;SDS011;19550;42.872;25.494;2024-02-26T01:10:41;10.23;;;5.95;;
33184;SDS011;19550;42.872;25.494;2024-02-26T01:13:09;10.13;;;5.22;;
33184;SDS011;19550;42.872;25.494;2024-02-26T01:15:36;12.18;;;5.40;;
33184;SDS011;19550;42.872;25.494;2024-02-26T01:18:03;12.15;;;5.63;;
33184;SDS011;19550;42.872;25.494;2024-02-26T01:20:30;11.18;;;6.30;;
33184;SDS011;19550;42.872;25.494;2024-02-26T01:22:57;8.05;;;5.38;;
33184;SDS011;19550;42.872;25.494;2024-02-26T01:25:23;12.38;;;6.13;;
33184;SDS011;19550;42.872;25.494;2024-02-26T01:27:50;11.10;;;5.20;;
33184;SDS011;19550;42.872;25.494;2024-02-26T01:30:18;8.13;;;5.32;;
33184;SDS011;19550;42.872;25.494;2024-02-26T01:32:45;9.90;;;5.03;;
33184;SDS011;19550;42.872;25.494;2024-02-26T01:35:12;7.43;;;4.63;;
33184;SDS011;19550;42.872;25.494;2024-02-26T01:37:39;11.52;;;5.10;;
33184;SDS011;19550;42.872;25.494;2024-02-26T01:40:07;6.43;;;4.63;;
33184;SDS011;19550;42.872;25.494;2024-02-26T01:42:34;10.05;;;5.50;;
33184;SDS011;19550;42.872;25.494;2024-02-26T01:45:01;11.98;;;5.43;;
33184;SDS011;19550;42.872;25.494;2024-02-26T01:47:30;14.55;;;5.63;;
33184;SDS011;19550;42.872;25.494;2024-02-26T01:49:57;10.35;;;5.28;;
33184;SDS011;19550;42.872;25.494;2024-02-26T01:52:24;7.97;;;5.25;;
33184;SDS011;19550;42.872;25.494;2024-02-26T01:54:51;9.25;;;4.75;;
33184;SDS011;19550;42.872;25.494;2024-02-26T01:57:17;8.20;;;4.65;;
33184;SDS011;19550;42.872;25.494;2024-02-26T01:59:44;7.63;;;4.40;;
33184;SDS011;19550;42.872;25.494;2024-02-26T02:02:11;10.88;;;5.50;;
33184;SDS011;19550;42.872;25.494;2024-02-26T02:04:41;7.35;;;4.22;;
33184;SDS011;19550;42.872;25.494;2024-02-26T02:07:08;9.98;;;5.35;;
33184;SDS011;19550;42.872;25.494;2024-02-26T02:09:35;13.65;;;4.60;;
33184;SDS011;19550;42.872;25.494;2024-02-26T02:12:02;9.60;;;4.35;;
33184;SDS011;19550;42.872;25.494;2024-02-26T02:14:29;11.40;;;4.25;;
33184;SDS011;19550;42.872;25.494;2024-02-26T02:16:56;5.53;;;4.20;;
33184;SDS011;19550;42.872;25.494;2024-02-26T02:19:24;11.45;;;5.00;;
33184;SDS011;19550;42.872;25.494;2024-02-26T02:21:52;10.15;;;4.43;;
33184;SDS011;19550;42.872;25.494;2024-02-26T02:24:19;13.98;;;4.22;;
33184;SDS011;19550;42.872;25.494;2024-02-26T02:26:46;7.68;;;4.05;;
33184;SDS011;19550;42.872;25.494;2024-02-26T02:29:13;10.05;;;4.35;;
33184;SDS011;19550;42.872;25.494;2024-02-26T02:31:40;7.32;;;4.13;;
33184;SDS011;19550;42.872;25.494;2024-02-26T02:34:08;7.63;;;4.15;;
33184;SDS011;19550;42.872;25.494;2024-02-26T02:36:47;5.93;;;4.20;;
33184;SDS011;19550;42.872;25.494;2024-02-26T02:39:16;7.83;;;4.27;;
33184;SDS011;19550;42.872;25.494;2024-02-26T02:41:43;8.70;;;4.05;;
33184;SDS011;19550;42.872;25.494;2024-02-26T02:44:10;9.25;;;4.72;;
33184;SDS011;19550;42.872;25.494;2024-02-26T02:46:37;7.65;;;4.82;;
33184;SDS011;19550;42.872;25.494;2024-02-26T02:49:03;10.13;;;4.60;;
33184;SDS011;19550;42.872;25.494;2024-02-26T02:51:30;9.20;;;4.45;;
33184;SDS011;19550;42.872;25.494;2024-02-26T02:53:57;7.45;;;4.00;;
33184;SDS011;19550;42.872;25.494;2024-02-26T02:56:25;8.82;;;4.32;;
33184;SDS011;19550;42.872;25.494;2024-02-26T02:58:52;8.15;;;4.35;;
33184;SDS011;19550;42.872;25.494;2024-02-26T03:01:18;9.27;;;4.50;;
33184;SDS011;19550;42.872;25.494;2024-02-26T03:03:45;7.97;;;4.18;;
33184;SDS011;19550;42.872;25.494;2024-02-26T03:06:12;7.15;;;4.78;;
33184;SDS011;19550;42.872;25.494;2024-02-26T03:08:39;8.70;;;4.97;;
33184;SDS011;19550;42.872;25.494;2024-02-26T03:11:07;7.30;;;4.53;;
33184;SDS011;19550;42.872;25.494;2024-02-26T03:13:35;7.53;;;4.70;;
33184;SDS011;19550;42.872;25.494;2024-02-26T03:16:04;7.40;;;4.50;;
33184;SDS011;19550;42.872;25.494;2024-02-26T03:18:31;10.73;;;4.32;;
33184;SDS011;19550;42.872;25.494;2024-02-26T03:20:58;9.93;;;5.50;;
33184;SDS011;19550;42.872;25.494;2024-02-26T03:23:24;17.48;;;9.57;;
33184;SDS011;19550;42.872;25.494;2024-02-26T03:25:51;12.05;;;8.43;;
33184;SDS011;19550;42.872;25.494;2024-02-26T03:28:18;19.58;;;7.88;;
33184;SDS011;19550;42.872;25.494;2024-02-26T03:30:46;16.75;;;9.00;;
33184;SDS011;19550;42.872;25.494;2024-02-26T03:33:13;10.77;;;6.43;;
33184;SDS011;19550;42.872;25.494;2024-02-26T03:35:39;12.30;;;6.20;;
33184;SDS011;19550;42.872;25.494;2024-02-26T03:38:08;13.75;;;7.85;;
33184;SDS011;19550;42.872;25.494;2024-02-26T03:40:35;32.50;;;20.55;;
33184;SDS011;19550;42.872;25.494;2024-02-26T03:43:04;21.20;;;10.50;;
33184;SDS011;19550;42.872;25.494;2024-02-26T03:45:32;16.10;;;8.90;;
33184;SDS011;19550;42.872;25.494;2024-02-26T03:48:00;14.07;;;7.30;;
33184;SDS011;19550;42.872;25.494;2024-02-26T03:50:27;12.57;;;6.22;;
33184;SDS011;19550;42.872;25.494;2024-02-26T03:52:54;13.15;;;6.43;;
33184;SDS011;19550;42.872;25.494;2024-02-26T03:55:22;8.60;;;5.25;;
33184;SDS011;19550;42.872;25.494;2024-02-26T03:57:50;10.43;;;5.82;;
33184;SDS011;19550;42.872;25.494;2024-02-26T04:00:17;10.93;;;5.53;;
33184;SDS011;19550;42.872;25.494;2024-02-26T04:02:44;11.18;;;4.95;;
33184;SDS011;19550;42.872;25.494;2024-02-26T04:05:12;10.98;;;4.95;;
33184;SDS011;19550;42.872;25.494;2024-02-26T04:07:39;12.27;;;4.95;;
33184;SDS011;19550;42.872;25.494;2024-02-26T04:10:08;7.90;;;4.97;;
33184;SDS011;19550;42.872;25.494;2024-02-26T04:12:36;21.02;;;9.80;;
33184;SDS011;19550;42.872;25.494;2024-02-26T04:15:05;11.03;;;6.13;;
33184;SDS011;19550;42.872;25.494;2024-02-26T04:17:33;15.25;;;6.05;;
33184;SDS011;19550;42.872;25.494;2024-02-26T04:19:59;8.18;;;5.90;;
33184;SDS011;19550;42.872;25.494;2024-02-26T04:22:28;11.80;;;5.78;;
33184;SDS011;19550;42.872;25.494;2024-02-26T04:24:55;8.45;;;5.30;;
33184;SDS011;19550;42.872;25.494;2024-02-26T04:27:21;8.63;;;5.53;;
33184;SDS011;19550;42.872;25.494;2024-02-26T04:29:48;11.70;;;7.63;;
33184;SDS011;19550;42.872;25.494;2024-02-26T04:32:15;23.48;;;13.77;;
33184;SDS011;19550;42.872;25.494;2024-02-26T04:34:41;19.92;;;9.02;;
33184;SDS011;19550;42.872;25.494;2024-02-26T04:37:08;16.27;;;9.40;;
33184;SDS011;19550;42.872;25.494;2024-02-26T04:39:36;9.75;;;7.25;;
33184;SDS011;19550;42.872;25.494;2024-02-26T04:42:03;16.58;;;6.32;;
33184;SDS011;19550;42.872;25.494;2024-02-26T04:44:30;18.80;;;10.73;;
33184;SDS011;19550;42.872;25.494;2024-02-26T04:46:57;41.20;;;23.00;;
33184;SDS011;19550;42.872;25.494;2024-02-26T04:49:26;20.13;;;10.93;;
33184;SDS011;19550;42.872;25.494;2024-02-26T04:51:53;17.95;;;11.10;;
33184;SDS011;19550;42.872;25.494;2024-02-26T04:54:20;18.08;;;9.25;;
33184;SDS011;19550;42.872;25.494;2024-02-26T04:56:48;16.13;;;7.78;;
33184;SDS011;19550;42.872;25.494;2024-02-26T04:59:15;18.40;;;11.52;;
33184;SDS011;19550;42.872;25.494;2024-02-26T05:01:42;12.98;;;7.32;;
33184;SDS011;19550;42.872;25.494;2024-02-26T05:04:09;12.45;;;7.15;;
33184;SDS011;19550;42.872;25.494;2024-02-26T05:06:36;14.82;;;8.30;;
33184;SDS011;19550;42.872;25.494;2024-02-26T05:09:03;18.15;;;8.45;;
33184;SDS011;19550;42.872;25.494;2024-02-26T05:11:30;23.50;;;14.75;;
33184;SDS011;19550;42.872;25.494;2024-02-26T05:13:58;25.00;;;16.63;;
33184;SDS011;19550;42.872;25.494;2024-02-26T05:16:26;24.20;;;15.07;;
33184;SDS011;19550;42.872;25.494;2024-02-26T05:18:52;18.83;;;12.45;;
33184;SDS011;19550;42.872;25.494;2024-02-26T05:21:21;20.75;;;12.27;;
33184;SDS011;19550;42.872;25.494;2024-02-26T05:23:47;16.13;;;10.40;;
33184;SDS011;19550;42.872;25.494;2024-02-26T05:26:19;23.88;;;15.65;;
33184;SDS011;19550;42.872;25.494;2024-02-26T05:28:46;22.02;;;15.15;;
33184;SDS011;19550;42.872;25.494;2024-02-26T05:31:16;26.95;;;14.75;;
33184;SDS011;19550;42.872;25.494;2024-02-26T05:33:43;31.52;;;19.13;;
33184;SDS011;19550;42.872;25.494;2024-02-26T05:36:17;27.98;;;17.80;;
33184;SDS011;19550;42.872;25.494;2024-02-26T05:38:44;25.67;;;14.70;;
33184;SDS011;19550;42.872;25.494;2024-02-26T05:41:12;22.15;;;13.35;;
33184;SDS011;19550;42.872;25.494;2024-02-26T05:43:40;19.08;;;10.55;;
33184;SDS011;19550;42.872;25.494;2024-02-26T05:46:07;12.00;;;8.25;;
33184;SDS011;19550;42.872;25.494;2024-02-26T05:48:35;13.63;;;8.63;;
33184;SDS011;19550;42.872;25.494;2024-02-26T05:51:02;11.30;;;7.68;;
33184;SDS011;19550;42.872;25.494;2024-02-26T05:53:28;13.20;;;7.22;;
33184;SDS011;19550;42.872;25.494;2024-02-26T05:55:55;22.20;;;11.75;;
33184;SDS011;19550;42.872;25.494;2024-02-26T05:58:22;15.52;;;9.63;;
33184;SDS011;19550;42.872;25.494;2024-02-26T06:00:49;14.38;;;10.10;;
33184;SDS011;19550;42.872;25.494;2024-02-26T06:03:15;11.32;;;8.35;;
33184;SDS011;19550;42.872;25.494;2024-02-26T06:05:43;12.13;;;9.18;;
33184;SDS011;19550;42.872;25.494;2024-02-26T06:08:10;10.38;;;5.90;;
33184;SDS011;19550;42.872;25.494;2024-02-26T06:10:37;9.77;;;6.18;;
33184;SDS011;19550;42.872;25.494;2024-02-26T06:13:05;9.10;;;5.38;;
33184;SDS011;19550;42.872;25.494;2024-02-26T06:15:32;12.65;;;5.57;;
33184;SDS011;19550;42.872;25.494;2024-02-26T06:17:59;7.95;;;4.95;;
33184;SDS011;19550;42.872;25.494;2024-02-26T06:20:25;11.50;;;5.65;;
33184;SDS011;19550;42.872;25.494;2024-02-26T06:22:53;10.48;;;5.32;;
33184;SDS011;19550;42.872;25.494;2024-02-26T06:25:20;10.20;;;4.75;;
33184;SDS011;19550;42.872;25.494;2024-02-26T06:27:47;7.80;;;5.00;;
33184;SDS011;19550;42.872;25.494;2024-02-26T06:30:14;8.43;;;4.53;;
33184;SDS011;19550;42.872;25.494;2024-02-26T06:32:41;9.73;;;5.00;;
33184;SDS011;19550;42.872;25.494;2024-02-26T06:35:08;7.75;;;4.97;;
33184;SDS011;19550;42.872;25.494;2024-02-26T06:37:36;7.03;;;5.57;;
33184;SDS011;19550;42.872;25.494;2024-02-26T06:40:06;11.40;;;5.65;;
33184;SDS011;19550;42.872;25.494;2024-02-26T06:42:34;11.00;;;7.28;;
33184;SDS011;19550;42.872;25.494;2024-02-26T06:45:00;9.85;;;6.78;;
33184;SDS011;19550;42.872;25.494;2024-02-26T06:47:29;7.72;;;5.90;;
33184;SDS011;19550;42.872;25.494;2024-02-26T06:49:56;11.95;;;6.80;;
33184;SDS011;19550;42.872;25.494;2024-02-26T06:52:23;8.55;;;5.50;;
33184;SDS011;19550;42.872;25.494;2024-02-26T06:54:51;11.50;;;6.53;;
33184;SDS011;19550;42.872;25.494;2024-02-26T06:57:19;8.05;;;5.30;;
33184;SDS011;19550;42.872;25.494;2024-02-26T06:59:46;7.70;;;4.70;;
33184;SDS011;19550;42.872;25.494;2024-02-26T07:02:13;6.75;;;3.90;;
33184;SDS011;19550;42.872;25.494;2024-02-26T07:04:41;12.95;;;5.43;;
33184;SDS011;19550;42.872;25.494;2024-02-26T07:07:08;12.98;;;6.47;;
33184;SDS011;19550;42.872;25.494;2024-02-26T07:09:35;12.02;;;4.30;;
33184;SDS011;19550;42.872;25.494;2024-02-26T07:12:02;8.52;;;4.30;;
33184;SDS011;19550;42.872;25.494;2024-02-26T07:14:31;6.97;;;3.30;;
33184;SDS011;19550;42.872;25.494;2024-02-26T07:16:58;12.38;;;6.50;;
33184;SDS011;19550;42.872;25.494;2024-02-26T07:19:24;29.05;;;14.13;;
33184;SDS011;19550;42.872;25.494;2024-02-26T07:21:51;5.75;;;3.28;;
33184;SDS011;19550;42.872;25.494;2024-02-26T07:24:18;7.93;;;3.40;;
33184;SDS011;19550;42.872;25.494;2024-02-26T07:26:45;10.02;;;5.07;;
33184;SDS011;19550;42.872;25.494;2024-02-26T07:29:12;11.90;;;5.45;;
33184;SDS011;19550;42.872;25.494;2024-02-26T07:31:40;7.32;;;3.67;;
33184;SDS011;19550;42.872;25.494;2024-02-26T07:34:06;8.95;;;4.80;;
33184;SDS011;19550;42.872;25.494;2024-02-26T07:36:34;7.22;;;3.45;;
33184;SDS011;19550;42.872;25.494;2024-02-26T07:39:01;10.60;;;5.05;;
33184;SDS011;19550;42.872;25.494;2024-02-26T07:41:26;7.80;;;4.50;;
33184;SDS011;19550;42.872;25.494;2024-02-26T07:43:53;5.93;;;3.63;;
33184;SDS011;19550;42.872;25.494;2024-02-26T07:46:20;5.72;;;3.13;;
33184;SDS011;19550;42.872;25.494;2024-02-26T07:48:48;4.30;;;2.58;;
33184;SDS011;19550;42.872;25.494;2024-02-26T07:51:15;4.97;;;2.60;;
33184;SDS011;19550;42.872;25.494;2024-02-26T07:53:42;4.90;;;3.08;;
33184;SDS011;19550;42.872;25.494;2024-02-26T07:56:09;3.65;;;2.83;;
33184;SDS011;19550;42.872;25.494;2024-02-26T07:58:36;6.57;;;4.35;;
33184;SDS011;19550;42.872;25.494;2024-02-26T08:01:03;8.38;;;6.03;;
33184;SDS011;19550;42.872;25.494;2024-02-26T08:03:30;10.45;;;3.80;;
33184;SDS011;19550;42.872;25.494;2024-02-26T08:05:58;5.03;;;3.38;;
33184;SDS011;19550;42.872;25.494;2024-02-26T08:08:25;8.35;;;4.95;;
33184;SDS011;19550;42.872;25.494;2024-02-26T08:10:52;10.63;;;5.18;;
33184;SDS011;19550;42.872;25.494;2024-02-26T08:13:19;6.53;;;3.35;;
33184;SDS011;19550;42.872;25.494;2024-02-26T08:15:45;8.32;;;3.35;;
33184;SDS011;19550;42.872;25.494;2024-02-26T08:18:12;7.25;;;3.10;;
33184;SDS011;19550;42.872;25.494;2024-02-26T08:20:39;7.68;;;3.22;;
33184;SDS011;19550;42.872;25.494;2024-02-26T08:23:07;5.93;;;3.88;;
33184;SDS011;19550;42.872;25.494;2024-02-26T08:25:34;6.90;;;3.17;;
33184;SDS011;19550;42.872;25.494;2024-02-26T08:28:01;5.38;;;2.97;;
33184;SDS011;19550;42.872;25.494;2024-02-26T08:30:28;8.70;;;3.22;;
33184;SDS011;19550;42.872;25.494;2024-02-26T08:32:54;6.60;;;3.35;;
33184;SDS011;19550;42.872;25.494;2024-02-26T08:35:21;6.00;;;3.65;;
33184;SDS011;19550;42.872;25.494;2024-02-26T08:37:48;7.22;;;3.20;;
33184;SDS011;19550;42.872;25.494;2024-02-26T08:40:17;5.22;;;2.88;;
33184;SDS011;19550;42.872;25.494;2024-02-26T08:42:44;3.50;;;2.17;;
33184;SDS011;19550;42.872;25.494;2024-02-26T08:45:11;6.57;;;2.10;;
33184;SDS011;19550;42.872;25.494;2024-02-26T08:47:38;8.13;;;2.60;;
33184;SDS011;19550;42.872;25.494;2024-02-26T08:50:06;5.20;;;2.40;;
33184;SDS011;19550;42.872;25.494;2024-02-26T08:52:34;4.77;;;2.40;;
33184;SDS011;19550;42.872;25.494;2024-02-26T08:55:01;7.50;;;2.88;;
33184;SDS011;19550;42.872;25.494;2024-02-26T08:57:30;5.45;;;3.60;;
33184;SDS011;19550;42.872;25.494;2024-02-26T09:02:25;5.30;;;2.72;;
33184;SDS011;19550;42.872;25.494;2024-02-26T09:04:52;6.78;;;3.50;;
33184;SDS011;19550;42.872;25.494;2024-02-26T09:07:20;6.78;;;3.20;;
33184;SDS011;19550;42.872;25.494;2024-02-26T09:09:47;11.15;;;2.53;;
33184;SDS011;19550;42.872;25.494;2024-02-26T09:12:14;9.98;;;3.35;;
33184;SDS011;19550;42.872;25.494;2024-02-26T09:14:42;11.80;;;4.95;;
33184;SDS011;19550;42.872;25.494;2024-02-26T09:17:09;8.70;;;3.05;;
33184;SDS011;19550;42.872;25.494;2024-02-26T09:19:35;10.70;;;2.47;;
33184;SDS011;19550;42.872;25.494;2024-02-26T09:22:03;6.55;;;2.33;;
33184;SDS011;19550;42.872;25.494;2024-02-26T09:24:30;9.43;;;3.63;;
33184;SDS011;19550;42.872;25.494;2024-02-26T09:26:56;13.55;;;5.88;;
33184;SDS011;19550;42.872;25.494;2024-02-26T09:29:23;5.35;;;2.58;;
33184;SDS011;19550;42.872;25.494;2024-02-26T09:31:53;8.02;;;2.95;;
33184;SDS011;19550;42.872;25.494;2024-02-26T09:34:19;5.40;;;2.60;;
33184;SDS011;19550;42.872;25.494;2024-02-26T09:36:46;6.60;;;3.05;;
33184;SDS011;19550;42.872;25.494;2024-02-26T09:39:13;6.47;;;2.72;;
33184;SDS011;19550;42.872;25.494;2024-02-26T09:41:45;5.32;;;2.35;;
33184;SDS011;19550;42.872;25.494;2024-02-26T09:44:12;6.97;;;2.70;;
33184;SDS011;19550;42.872;25.494;2024-02-26T09:46:44;5.47;;;2.50;;
33184;SDS011;19550;42.872;25.494;2024-02-26T09:49:13;7.03;;;2.92;;
33184;SDS011;19550;42.872;25.494;2024-02-26T09:54:09;10.95;;;2.15;;
33184;SDS011;19550;42.872;25.494;2024-02-26T09:56:36;9.00;;;2.10;;
33184;SDS011;19550;42.872;25.494;2024-02-26T09:59:05;4.13;;;2.80;;
33184;SDS011;19550;42.872;25.494;2024-02-26T10:01:36;9.57;;;2.92;;
33184;SDS011;19550;42.872;25.494;2024-02-26T10:04:05;7.97;;;2.55;;
33184;SDS011;19550;42.872;25.494;2024-02-26T10:06:34;5.30;;;2.47;;
33184;SDS011;19550;42.872;25.494;2024-02-26T10:09:02;3.40;;;1.80;;
33184;SDS011;19550;42.872;25.494;2024-02-26T10:11:32;7.45;;;2.30;;
33184;SDS011;19550;42.872;25.494;2024-02-26T10:13:59;5.93;;;1.73;;
33184;SDS011;19550;42.872;25.494;2024-02-26T10:16:25;5.65;;;2.17;;
33184;SDS011;19550;42.872;25.494;2024-02-26T10:18:52;6.90;;;3.60;;
33184;SDS011;19550;42.872;25.494;2024-02-26T10:21:19;5.20;;;2.50;;
33184;SDS011;19550;42.872;25.494;2024-02-26T10:23:48;4.05;;;2.35;;
33184;SDS011;19550;42.872;25.494;2024-02-26T10:26:16;8.10;;;2.95;;
33184;SDS011;19550;42.872;25.494;2024-02-26T10:28:43;7.68;;;2.25;;
33184;SDS011;19550;42.872;25.494;2024-02-26T10:31:13;6.85;;;1.92;;
33184;SDS011;19550;42.872;25.494;2024-02-26T10:33:40;6.18;;;1.88;;
33184;SDS011;19550;42.872;25.494;2024-02-26T10:36:09;4.18;;;2.08;;
33184;SDS011;19550;42.872;25.494;2024-02-26T10:38:36;7.43;;;1.98;;
33184;SDS011;19550;42.872;25.494;2024-02-26T10:41:05;4.95;;;1.58;;
33184;SDS011;19550;42.872;25.494;2024-02-26T10:43:33;11.20;;;2.45;;
33184;SDS011;19550;42.872;25.494;2024-02-26T10:46:00;4.22;;;1.85;;
33184;SDS011;19550;42.872;25.494;2024-02-26T10:48:27;5.78;;;1.60;;
33184;SDS011;19550;42.872;25.494;2024-02-26T10:50:54;8.45;;;1.80;;
33184;SDS011;19550;42.872;25.494;2024-02-26T10:53:22;6.95;;;2.70;;
33184;SDS011;19550;42.872;25.494;2024-02-26T10:55:52;3.67;;;2.03;;
33184;SDS011;19550;42.872;25.494;2024-02-26T10:58:22;6.47;;;1.70;;
33184;SDS011;19550;42.872;25.494;2024-02-26T11:00:51;8.73;;;3.90;;
33184;SDS011;19550;42.872;25.494;2024-02-26T11:03:18;4.38;;;2.25;;
33184;SDS011;19550;42.872;25.494;2024-02-26T11:05:47;2.40;;;1.67;;
33184;SDS011;19550;42.872;25.494;2024-02-26T11:08:15;7.68;;;2.45;;
33184;SDS011;19550;42.872;25.494;2024-02-26T11:10:42;9.68;;;3.10;;
33184;SDS011;19550;42.872;25.494;2024-02-26T11:13:10;5.57;;;1.70;;
33184;SDS011;19550;42.872;25.494;2024-02-26T11:15:41;7.35;;;1.75;;
33184;SDS011;19550;42.872;25.494;2024-02-26T11:18:09;6.55;;;1.80;;
33184;SDS011;19550;42.872;25.494;2024-02-26T11:20:38;4.53;;;2.03;;
33184;SDS011;19550;42.872;25.494;2024-02-26T11:23:06;4.80;;;1.60;;
33184;SDS011;19550;42.872;25.494;2024-02-26T11:25:34;7.75;;;2.38;;
33184;SDS011;19550;42.872;25.494;2024-02-26T11:28:03;3.70;;;1.92;;
33184;SDS011;19550;42.872;25.494;2024-02-26T11:30:34;9.40;;;3.35;;
33184;SDS011;19550;42.872;25.494;2024-02-26T11:33:08;3.97;;;2.20;;
33184;SDS011;19550;42.872;25.494;2024-02-26T11:35:37;19.73;;;2.22;;
33184;SDS011;19550;42.872;25.494;2024-02-26T11:38:04;3.78;;;2.58;;
33184;SDS011;19550;42.872;25.494;2024-02-26T11:40:32;4.20;;;2.28;;
33184;SDS011;19550;42.872;25.494;2024-02-26T11:43:00;4.18;;;2.40;;
33184;SDS011;19550;42.872;25.494;2024-02-26T11:45:38;5.55;;;2.38;;
33184;SDS011;19550;42.872;25.494;2024-02-26T11:48:16;7.68;;;2.25;;
33184;SDS011;19550;42.872;25.494;2024-02-26T11:50:48;7.50;;;2.35;;
33184;SDS011;19550;42.872;25.494;2024-02-26T11:53:20;8.55;;;2.80;;
33184;SDS011;19550;42.872;25.494;2024-02-26T11:55:48;6.40;;;3.03;;
33184;SDS011;19550;42.872;25.494;2024-02-26T11:58:15;7.45;;;3.05;;
33184;SDS011;19550;42.872;25.494;2024-02-26T12:00:42;4.50;;;2.58;;
33184;SDS011;19550;42.872;25.494;2024-02-26T12:03:09;8.05;;;3.05;;
33184;SDS011;19550;42.872;25.494;2024-02-26T12:05:38;6.43;;;2.13;;
33184;SDS011;19550;42.872;25.494;2024-02-26T12:08:06;3.63;;;2.30;;
33184;SDS011;19550;42.872;25.494;2024-02-26T12:10:34;5.82;;;2.58;;
33184;SDS011;19550;42.872;25.494;2024-02-26T12:13:05;8.57;;;2.10;;
33184;SDS011;19550;42.872;25.494;2024-02-26T12:18:03;4.22;;;2.63;;
33184;SDS011;19550;42.872;25.494;2024-02-26T12:20:31;7.23;;;2.60;;
33184;SDS011;19550;42.872;25.494;2024-02-26T12:23:00;7.28;;;2.65;;
33184;SDS011;19550;42.872;25.494;2024-02-26T12:27:56;6.15;;;2.92;;
33184;SDS011;19550;42.872;25.494;2024-02-26T12:30:24;11.02;;;4.10;;
33184;SDS011;19550;42.872;25.494;2024-02-26T12:32:52;5.57;;;3.63;;
33184;SDS011;19550;42.872;25.494;2024-02-26T12:35:22;6.95;;;3.25;;
33184;SDS011;19550;42.872;25.494;2024-02-26T12:37:49;11.95;;;4.55;;
33184;SDS011;19550;42.872;25.494;2024-02-26T12:40:18;5.25;;;2.75;;
33184;SDS011;19550;42.872;25.494;2024-02-26T12:42:45;6.88;;;3.30;;
33184;SDS011;19550;42.872;25.494;2024-02-26T12:45:12;11.23;;;8.13;;
33184;SDS011;19550;42.872;25.494;2024-02-26T12:47:41;10.57;;;4.97;;
33184;SDS011;19550;42.872;25.494;2024-02-26T12:50:08;11.73;;;5.28;;
33184;SDS011;19550;42.872;25.494;2024-02-26T12:52:37;10.98;;;5.88;;
33184;SDS011;19550;42.872;25.494;2024-02-26T12:55:06;11.23;;;5.05;;
33184;SDS011;19550;42.872;25.494;2024-02-26T12:57:35;10.45;;;5.30;;
33184;SDS011;19550;42.872;25.494;2024-02-26T13:00:04;12.30;;;6.00;;
33184;SDS011;19550;42.872;25.494;2024-02-26T13:02:34;15.02;;;5.68;;
33184;SDS011;19550;42.872;25.494;2024-02-26T13:05:03;10.43;;;6.50;;
33184;SDS011;19550;42.872;25.494;2024-02-26T13:07:31;8.30;;;5.15;;
33184;SDS011;19550;42.872;25.494;2024-02-26T13:09:58;12.55;;;5.70;;
33184;SDS011;19550;42.872;25.494;2024-02-26T13:12:26;7.65;;;3.17;;
33184;SDS011;19550;42.872;25.494;2024-02-26T13:15:01;6.22;;;3.85;;
33184;SDS011;19550;42.872;25.494;2024-02-26T13:17:31;7.53;;;3.15;;
33184;SDS011;19550;42.872;25.494;2024-02-26T13:19:58;11.60;;;6.25;;
33184;SDS011;19550;42.872;25.494;2024-02-26T13:22:25;9.38;;;5.80;;
33184;SDS011;19550;42.872;25.494;2024-02-26T13:24:54;13.02;;;4.15;;
33184;SDS011;19550;42.872;25.494;2024-02-26T13:29:48;7.03;;;4.38;;
33184;SDS011;19550;42.872;25.494;2024-02-26T13:32:16;8.57;;;3.50;;
33184;SDS011;19550;42.872;25.494;2024-02-26T13:34:43;7.00;;;3.85;;
33184;SDS011;19550;42.872;25.494;2024-02-26T13:37:10;7.60;;;4.82;;
33184;SDS011;19550;42.872;25.494;2024-02-26T13:39:37;11.48;;;4.47;;
33184;SDS011;19550;42.872;25.494;2024-02-26T13:42:06;7.82;;;3.53;;
33184;SDS011;19550;42.872;25.494;2024-02-26T13:44:36;8.50;;;4.40;;
33184;SDS011;19550;42.872;25.494;2024-02-26T13:47:05;8.30;;;3.58;;
33184;SDS011;19550;42.872;25.494;2024-02-26T13:49:33;7.85;;;5.38;;
33184;SDS011;19550;42.872;25.494;2024-02-26T13:52:00;9.50;;;4.55;;
33184;SDS011;19550;42.872;25.494;2024-02-26T13:54:29;14.55;;;6.97;;
33184;SDS011;19550;42.872;25.494;2024-02-26T13:56:56;10.90;;;5.07;;
33184;SDS011;19550;42.872;25.494;2024-02-26T13:59:22;8.48;;;4.07;;
33184;SDS011;19550;42.872;25.494;2024-02-26T14:01:49;9.32;;;5.13;;
33184;SDS011;19550;42.872;25.494;2024-02-26T14:04:18;10.40;;;5.97;;
33184;SDS011;19550;42.872;25.494;2024-02-26T14:06:46;11.18;;;4.60;;
33184;SDS011;19550;42.872;25.494;2024-02-26T14:09:13;14.13;;;5.30;;
33184;SDS011;19550;42.872;25.494;2024-02-26T14:11:43;13.10;;;5.35;;
33184;SDS011;19550;42.872;25.494;2024-02-26T14:14:11;9.52;;;4.53;;
33184;SDS011;19550;42.872;25.494;2024-02-26T14:16:38;8.63;;;4.40;;
33184;SDS011;19550;42.872;25.494;2024-02-26T14:19:05;10.60;;;4.93;;
33184;SDS011;19550;42.872;25.494;2024-02-26T14:21:31;10.45;;;5.63;;
33184;SDS011;19550;42.872;25.494;2024-02-26T14:23:59;10.98;;;5.22;;
33184;SDS011;19550;42.872;25.494;2024-02-26T14:26:26;14.93;;;8.70;;
33184;SDS011;19550;42.872;25.494;2024-02-26T14:28:53;6.78;;;4.78;;
33184;SDS011;19550;42.872;25.494;2024-02-26T14:31:21;11.10;;;4.88;;
33184;SDS011;19550;42.872;25.494;2024-02-26T14:33:48;15.23;;;5.25;;
33184;SDS011;19550;42.872;25.494;2024-02-26T14:36:18;11.23;;;5.82;;
33184;SDS011;19550;42.872;25.494;2024-02-26T14:38:44;17.88;;;5.70;;
33184;SDS011;19550;42.872;25.494;2024-02-26T14:41:13;8.77;;;4.75;;
33184;SDS011;19550;42.872;25.494;2024-02-26T14:43:39;10.68;;;5.97;;